sensor_id;sensor_type;location;lat;lon;timestamp;P1;durP1;ratioP1;P2;durP2;ratioP2
21675;SDS011;10999;51.332;9.458;2023-04-06T00:00:21;11.25;;;4.97;;
21675;SDS011;10999;51.332;9.458;2023-04-06T00:02:48;10.75;;;4.38;;
21675;SDS011;10999;51.332;9.458;2023-04-06T00:05:16;10.18;;;4.10;;
21675;SDS011;10999;51.332;9.458;2023-04-06T00:07:42;8.73;;;3.80;;
21675;SDS011;10999;51.332;9.458;2023-04-06T00:10:09;11.45;;;4.50;;
21675;SDS011;10999;51.332;9.458;2023-04-06T00:12:36;9.05;;;4.32;;
21675;SDS011;10999;51.332;9.458;2023-04-06T00:15:03;10.02;;;3.85;;
21675;SDS011;10999;51.332;9.458;2023-04-06T00:17:31;11.25;;;4.50;;
21675;SDS011;10999;51.332;9.458;2023-04-06T00:19:58;10.52;;;4.35;;
21675;SDS011;10999;51.332;9.458;2023-04-06T00:22:25;10.23;;;4.15;;
21675;SDS011;10999;51.332;9.458;2023-04-06T00:24:52;10.93;;;4.45;;
21675;SDS011;10999;51.332;9.458;2023-04-06T00:27:18;9.63;;;4.38;;
21675;SDS011;10999;51.332;9.458;2023-04-06T00:29:46;10.43;;;4.28;;
21675;SDS011;10999;51.332;9.458;2023-04-06T00:32:12;10.55;;;4.05;;
21675;SDS011;10999;51.332;9.458;2023-04-06T00:34:39;10.05;;;4.45;;
21675;SDS011;10999;51.332;9.458;2023-04-06T00:37:06;8.40;;;3.25;;
21675;SDS011;10999;51.332;9.458;2023-04-06T00:39:33;11.52;;;4.53;;
21675;SDS011;10999;51.332;9.458;2023-04-06T00:42:00;10.20;;;3.80;;
21675;SDS011;10999;51.332;9.458;2023-04-06T00:44:33;9.25;;;4.63;;
21675;SDS011;10999;51.332;9.458;2023-04-06T00:47:00;10.48;;;3.92;;
21675;SDS011;10999;51.332;9.458;2023-04-06T00:49:27;9.45;;;3.92;;
21675;SDS011;10999;51.332;9.458;2023-04-06T00:51:54;8.50;;;3.55;;
21675;SDS011;10999;51.332;9.458;2023-04-06T00:54:21;10.07;;;3.85;;
21675;SDS011;10999;51.332;9.458;2023-04-06T00:56:48;9.98;;;4.10;;
21675;SDS011;10999;51.332;9.458;2023-04-06T00:59:15;10.20;;;4.68;;
21675;SDS011;10999;51.332;9.458;2023-04-06T01:01:42;7.70;;;3.75;;
21675;SDS011;10999;51.332;9.458;2023-04-06T01:04:09;8.73;;;3.28;;
21675;SDS011;10999;51.332;9.458;2023-04-06T01:06:36;9.93;;;4.10;;
21675;SDS011;10999;51.332;9.458;2023-04-06T01:09:03;9.70;;;3.70;;
21675;SDS011;10999;51.332;9.458;2023-04-06T01:11:30;10.00;;;3.80;;
21675;SDS011;10999;51.332;9.458;2023-04-06T01:13:57;9.98;;;3.90;;
21675;SDS011;10999;51.332;9.458;2023-04-06T01:16:24;9.15;;;4.45;;
21675;SDS011;10999;51.332;9.458;2023-04-06T01:18:52;11.52;;;4.40;;
21675;SDS011;10999;51.332;9.458;2023-04-06T01:21:19;10.25;;;3.72;;
21675;SDS011;10999;51.332;9.458;2023-04-06T01:23:46;11.85;;;4.72;;
21675;SDS011;10999;51.332;9.458;2023-04-06T01:26:13;9.15;;;4.28;;
21675;SDS011;10999;51.332;9.458;2023-04-06T01:28:40;7.00;;;3.20;;
21675;SDS011;10999;51.332;9.458;2023-04-06T01:31:07;8.55;;;3.97;;
21675;SDS011;10999;51.332;9.458;2023-04-06T01:33:35;8.43;;;3.97;;
21675;SDS011;10999;51.332;9.458;2023-04-06T01:36:03;9.18;;;4.35;;
21675;SDS011;10999;51.332;9.458;2023-04-06T01:38:30;8.48;;;3.88;;
21675;SDS011;10999;51.332;9.458;2023-04-06T01:40:57;8.02;;;3.30;;
21675;SDS011;10999;51.332;9.458;2023-04-06T01:43:24;8.90;;;3.80;;
21675;SDS011;10999;51.332;9.458;2023-04-06T01:45:51;10.77;;;3.83;;
21675;SDS011;10999;51.332;9.458;2023-04-06T01:48:18;13.63;;;4.60;;
21675;SDS011;10999;51.332;9.458;2023-04-06T01:50:45;7.93;;;3.40;;
21675;SDS011;10999;51.332;9.458;2023-04-06T01:53:12;9.95;;;4.28;;
21675;SDS011;10999;51.332;9.458;2023-04-06T01:55:40;9.00;;;3.55;;
21675;SDS011;10999;51.332;9.458;2023-04-06T01:58:07;9.15;;;4.10;;
21675;SDS011;10999;51.332;9.458;2023-04-06T02:00:34;11.00;;;4.22;;
21675;SDS011;10999;51.332;9.458;2023-04-06T02:03:02;12.40;;;4.47;;
21675;SDS011;10999;51.332;9.458;2023-04-06T02:05:29;8.95;;;4.10;;
21675;SDS011;10999;51.332;9.458;2023-04-06T02:07:57;8.98;;;3.67;;
21675;SDS011;10999;51.332;9.458;2023-04-06T02:10:24;8.43;;;3.83;;
21675;SDS011;10999;51.332;9.458;2023-04-06T02:12:51;9.32;;;4.22;;
21675;SDS011;10999;51.332;9.458;2023-04-06T02:15:18;8.80;;;4.05;;
21675;SDS011;10999;51.332;9.458;2023-04-06T02:17:45;8.05;;;3.30;;
21675;SDS011;10999;51.332;9.458;2023-04-06T02:20:12;9.75;;;3.85;;
21675;SDS011;10999;51.332;9.458;2023-04-06T02:22:39;9.80;;;4.13;;
21675;SDS011;10999;51.332;9.458;2023-04-06T02:25:06;10.27;;;3.85;;
21675;SDS011;10999;51.332;9.458;2023-04-06T02:27:34;10.80;;;4.30;;
21675;SDS011;10999;51.332;9.458;2023-04-06T02:30:04;9.40;;;3.90;;
21675;SDS011;10999;51.332;9.458;2023-04-06T02:32:31;9.00;;;3.90;;
21675;SDS011;10999;51.332;9.458;2023-04-06T02:34:59;10.05;;;4.72;;
21675;SDS011;10999;51.332;9.458;2023-04-06T02:37:26;9.73;;;4.28;;
21675;SDS011;10999;51.332;9.458;2023-04-06T02:39:53;9.82;;;4.40;;
21675;SDS011;10999;51.332;9.458;2023-04-06T02:42:20;11.23;;;4.68;;
21675;SDS011;10999;51.332;9.458;2023-04-06T02:44:47;11.65;;;4.97;;
21675;SDS011;10999;51.332;9.458;2023-04-06T02:47:14;8.73;;;4.13;;
21675;SDS011;10999;51.332;9.458;2023-04-06T02:49:41;10.80;;;4.85;;
21675;SDS011;10999;51.332;9.458;2023-04-06T02:52:08;10.75;;;4.55;;
21675;SDS011;10999;51.332;9.458;2023-04-06T02:54:35;10.38;;;4.38;;
21675;SDS011;10999;51.332;9.458;2023-04-06T02:57:02;9.30;;;4.38;;
21675;SDS011;10999;51.332;9.458;2023-04-06T02:59:29;12.23;;;4.75;;
21675;SDS011;10999;51.332;9.458;2023-04-06T03:01:56;10.35;;;4.82;;
21675;SDS011;10999;51.332;9.458;2023-04-06T03:04:23;11.20;;;4.30;;
21675;SDS011;10999;51.332;9.458;2023-04-06T03:06:52;11.48;;;4.13;;
21675;SDS011;10999;51.332;9.458;2023-04-06T03:09:20;9.52;;;4.55;;
21675;SDS011;10999;51.332;9.458;2023-04-06T03:11:48;11.70;;;4.97;;
21675;SDS011;10999;51.332;9.458;2023-04-06T03:14:15;10.07;;;4.32;;
21675;SDS011;10999;51.332;9.458;2023-04-06T03:16:44;9.40;;;4.65;;
21675;SDS011;10999;51.332;9.458;2023-04-06T03:19:11;11.45;;;5.07;;
21675;SDS011;10999;51.332;9.458;2023-04-06T03:21:38;9.93;;;4.25;;
21675;SDS011;10999;51.332;9.458;2023-04-06T03:24:05;9.98;;;3.92;;
21675;SDS011;10999;51.332;9.458;2023-04-06T03:26:32;10.63;;;4.68;;
21675;SDS011;10999;51.332;9.458;2023-04-06T03:29:02;9.20;;;4.55;;
21675;SDS011;10999;51.332;9.458;2023-04-06T03:31:30;9.85;;;4.85;;
21675;SDS011;10999;51.332;9.458;2023-04-06T03:33:57;13.90;;;5.40;;
21675;SDS011;10999;51.332;9.458;2023-04-06T03:36:25;11.60;;;4.38;;
21675;SDS011;10999;51.332;9.458;2023-04-06T03:38:53;11.25;;;4.72;;
21675;SDS011;10999;51.332;9.458;2023-04-06T03:41:20;11.52;;;5.20;;
21675;SDS011;10999;51.332;9.458;2023-04-06T03:43:48;9.45;;;4.38;;
21675;SDS011;10999;51.332;9.458;2023-04-06T03:46:15;14.82;;;5.43;;
21675;SDS011;10999;51.332;9.458;2023-04-06T03:48:42;14.15;;;6.22;;
21675;SDS011;10999;51.332;9.458;2023-04-06T03:51:09;10.52;;;4.60;;
21675;SDS011;10999;51.332;9.458;2023-04-06T03:53:36;10.75;;;5.00;;
21675;SDS011;10999;51.332;9.458;2023-04-06T03:56:03;11.45;;;4.70;;
21675;SDS011;10999;51.332;9.458;2023-04-06T03:58:31;11.90;;;5.10;;
21675;SDS011;10999;51.332;9.458;2023-04-06T04:00:58;9.82;;;4.50;;
21675;SDS011;10999;51.332;9.458;2023-04-06T04:03:25;11.05;;;5.05;;
21675;SDS011;10999;51.332;9.458;2023-04-06T04:05:54;16.65;;;5.65;;
21675;SDS011;10999;51.332;9.458;2023-04-06T04:08:24;15.27;;;5.35;;
21675;SDS011;10999;51.332;9.458;2023-04-06T04:10:51;8.25;;;4.60;;
21675;SDS011;10999;51.332;9.458;2023-04-06T04:13:21;12.40;;;5.30;;
21675;SDS011;10999;51.332;9.458;2023-04-06T04:15:48;14.88;;;5.15;;
21675;SDS011;10999;51.332;9.458;2023-04-06T04:18:15;10.32;;;5.20;;
21675;SDS011;10999;51.332;9.458;2023-04-06T04:20:42;10.85;;;5.18;;
21675;SDS011;10999;51.332;9.458;2023-04-06T04:23:11;13.52;;;5.15;;
21675;SDS011;10999;51.332;9.458;2023-04-06T04:25:40;9.95;;;5.13;;
21675;SDS011;10999;51.332;9.458;2023-04-06T04:28:11;12.25;;;5.55;;
21675;SDS011;10999;51.332;9.458;2023-04-06T04:30:39;14.45;;;5.55;;
21675;SDS011;10999;51.332;9.458;2023-04-06T04:33:25;14.43;;;6.05;;
21675;SDS011;10999;51.332;9.458;2023-04-06T04:36:33;9.88;;;5.18;;
21675;SDS011;10999;51.332;9.458;2023-04-06T04:39:05;12.10;;;6.15;;
21675;SDS011;10999;51.332;9.458;2023-04-06T04:41:38;11.38;;;5.15;;
21675;SDS011;10999;51.332;9.458;2023-04-06T04:48:19;11.48;;;5.10;;
21675;SDS011;10999;51.332;9.458;2023-04-06T04:51:13;10.63;;;4.43;;
21675;SDS011;10999;51.332;9.458;2023-04-06T04:53:49;11.00;;;5.28;;
21675;SDS011;10999;51.332;9.458;2023-04-06T04:56:45;10.50;;;4.63;;
21675;SDS011;10999;51.332;9.458;2023-04-06T04:59:31;14.50;;;5.68;;
21675;SDS011;10999;51.332;9.458;2023-04-06T05:05:38;10.57;;;4.53;;
21675;SDS011;10999;51.332;9.458;2023-04-06T05:08:26;10.63;;;4.93;;
21675;SDS011;10999;51.332;9.458;2023-04-06T05:10:56;10.85;;;5.07;;
21675;SDS011;10999;51.332;9.458;2023-04-06T05:13:45;9.90;;;5.07;;
21675;SDS011;10999;51.332;9.458;2023-04-06T05:16:35;15.98;;;5.80;;
21675;SDS011;10999;51.332;9.458;2023-04-06T05:19:02;12.82;;;5.07;;
21675;SDS011;10999;51.332;9.458;2023-04-06T05:21:38;11.52;;;5.22;;
21675;SDS011;10999;51.332;9.458;2023-04-06T05:24:09;10.52;;;4.80;;
21675;SDS011;10999;51.332;9.458;2023-04-06T05:30:15;12.93;;;5.10;;
21675;SDS011;10999;51.332;9.458;2023-04-06T05:32:51;14.30;;;5.90;;
21675;SDS011;10999;51.332;9.458;2023-04-06T05:35:38;12.35;;;5.85;;
21675;SDS011;10999;51.332;9.458;2023-04-06T05:38:08;17.48;;;5.85;;
21675;SDS011;10999;51.332;9.458;2023-04-06T05:40:41;12.70;;;5.57;;
21675;SDS011;10999;51.332;9.458;2023-04-06T05:43:17;12.82;;;5.55;;
21675;SDS011;10999;51.332;9.458;2023-04-06T05:45:49;14.98;;;5.88;;
21675;SDS011;10999;51.332;9.458;2023-04-06T05:48:21;13.93;;;5.90;;
21675;SDS011;10999;51.332;9.458;2023-04-06T05:50:57;16.35;;;5.65;;
21675;SDS011;10999;51.332;9.458;2023-04-06T05:53:26;12.00;;;5.32;;
21675;SDS011;10999;51.332;9.458;2023-04-06T05:55:56;13.50;;;5.43;;
21675;SDS011;10999;51.332;9.458;2023-04-06T05:58:25;10.35;;;4.97;;
21675;SDS011;10999;51.332;9.458;2023-04-06T06:00:59;12.07;;;5.90;;
21675;SDS011;10999;51.332;9.458;2023-04-06T06:03:31;13.52;;;6.63;;
21675;SDS011;10999;51.332;9.458;2023-04-06T06:06:01;14.57;;;5.72;;
21675;SDS011;10999;51.332;9.458;2023-04-06T06:08:31;15.88;;;6.88;;
21675;SDS011;10999;51.332;9.458;2023-04-06T06:10:58;18.10;;;8.07;;
21675;SDS011;10999;51.332;9.458;2023-04-06T06:13:26;15.02;;;7.55;;
21675;SDS011;10999;51.332;9.458;2023-04-06T06:15:53;15.90;;;6.82;;
21675;SDS011;10999;51.332;9.458;2023-04-06T06:18:22;14.35;;;6.90;;
21675;SDS011;10999;51.332;9.458;2023-04-06T06:20:50;14.32;;;6.85;;
21675;SDS011;10999;51.332;9.458;2023-04-06T06:23:20;14.45;;;7.22;;
21675;SDS011;10999;51.332;9.458;2023-04-06T06:25:48;18.52;;;7.25;;
21675;SDS011;10999;51.332;9.458;2023-04-06T06:28:18;14.63;;;7.38;;
21675;SDS011;10999;51.332;9.458;2023-04-06T06:30:53;13.40;;;6.20;;
21675;SDS011;10999;51.332;9.458;2023-04-06T06:33:22;13.32;;;5.75;;
21675;SDS011;10999;51.332;9.458;2023-04-06T06:35:49;16.00;;;6.60;;
21675;SDS011;10999;51.332;9.458;2023-04-06T06:38:17;15.90;;;7.18;;
21675;SDS011;10999;51.332;9.458;2023-04-06T06:40:49;17.40;;;7.13;;
21675;SDS011;10999;51.332;9.458;2023-04-06T06:43:17;15.05;;;6.75;;
21675;SDS011;10999;51.332;9.458;2023-04-06T06:45:44;15.32;;;7.55;;
21675;SDS011;10999;51.332;9.458;2023-04-06T06:48:11;14.07;;;6.43;;
21675;SDS011;10999;51.332;9.458;2023-04-06T06:50:41;11.38;;;6.22;;
21675;SDS011;10999;51.332;9.458;2023-04-06T06:53:08;15.25;;;6.45;;
21675;SDS011;10999;51.332;9.458;2023-04-06T06:55:37;13.25;;;6.00;;
21675;SDS011;10999;51.332;9.458;2023-04-06T06:58:06;9.70;;;5.70;;
21675;SDS011;10999;51.332;9.458;2023-04-06T07:00:35;15.13;;;6.10;;
21675;SDS011;10999;51.332;9.458;2023-04-06T07:03:02;12.88;;;6.05;;
21675;SDS011;10999;51.332;9.458;2023-04-06T07:05:30;12.23;;;6.22;;
21675;SDS011;10999;51.332;9.458;2023-04-06T07:07:57;11.73;;;5.75;;
21675;SDS011;10999;51.332;9.458;2023-04-06T07:10:24;11.13;;;5.63;;
21675;SDS011;10999;51.332;9.458;2023-04-06T07:12:52;11.63;;;5.85;;
21675;SDS011;10999;51.332;9.458;2023-04-06T07:15:19;13.15;;;6.70;;
21675;SDS011;10999;51.332;9.458;2023-04-06T07:17:46;11.85;;;6.03;;
21675;SDS011;10999;51.332;9.458;2023-04-06T07:20:13;14.13;;;6.00;;
21675;SDS011;10999;51.332;9.458;2023-04-06T07:22:42;14.38;;;6.03;;
21675;SDS011;10999;51.332;9.458;2023-04-06T07:25:10;13.38;;;5.53;;
21675;SDS011;10999;51.332;9.458;2023-04-06T07:27:37;11.85;;;6.22;;
21675;SDS011;10999;51.332;9.458;2023-04-06T07:30:04;11.68;;;6.13;;
21675;SDS011;10999;51.332;9.458;2023-04-06T07:32:31;9.57;;;5.22;;
21675;SDS011;10999;51.332;9.458;2023-04-06T07:35:00;11.75;;;5.80;;
21675;SDS011;10999;51.332;9.458;2023-04-06T07:37:28;12.30;;;5.57;;
21675;SDS011;10999;51.332;9.458;2023-04-06T07:40:02;10.93;;;5.45;;
21675;SDS011;10999;51.332;9.458;2023-04-06T07:42:30;12.80;;;5.88;;
21675;SDS011;10999;51.332;9.458;2023-04-06T07:44:59;11.82;;;5.00;;
21675;SDS011;10999;51.332;9.458;2023-04-06T07:47:26;11.25;;;4.90;;
21675;SDS011;10999;51.332;9.458;2023-04-06T07:49:54;12.13;;;5.00;;
21675;SDS011;10999;51.332;9.458;2023-04-06T07:52:22;10.73;;;4.93;;
21675;SDS011;10999;51.332;9.458;2023-04-06T07:54:51;11.70;;;5.32;;
21675;SDS011;10999;51.332;9.458;2023-04-06T07:57:32;12.98;;;5.00;;
21675;SDS011;10999;51.332;9.458;2023-04-06T07:59:59;9.63;;;4.43;;
21675;SDS011;10999;51.332;9.458;2023-04-06T08:02:27;10.73;;;4.55;;
21675;SDS011;10999;51.332;9.458;2023-04-06T08:04:54;11.20;;;5.13;;
21675;SDS011;10999;51.332;9.458;2023-04-06T08:07:23;13.32;;;5.28;;
21675;SDS011;10999;51.332;9.458;2023-04-06T08:09:51;9.60;;;5.18;;
21675;SDS011;10999;51.332;9.458;2023-04-06T08:12:20;11.00;;;4.95;;
21675;SDS011;10999;51.332;9.458;2023-04-06T08:14:47;11.70;;;5.28;;
21675;SDS011;10999;51.332;9.458;2023-04-06T08:17:14;10.80;;;4.97;;
21675;SDS011;10999;51.332;9.458;2023-04-06T08:19:44;9.50;;;4.55;;
21675;SDS011;10999;51.332;9.458;2023-04-06T08:22:11;9.18;;;4.70;;
21675;SDS011;10999;51.332;9.458;2023-04-06T08:24:38;11.98;;;4.82;;
21675;SDS011;10999;51.332;9.458;2023-04-06T08:27:05;11.05;;;4.90;;
21675;SDS011;10999;51.332;9.458;2023-04-06T08:29:32;10.60;;;5.15;;
21675;SDS011;10999;51.332;9.458;2023-04-06T08:31:58;12.75;;;5.25;;
21675;SDS011;10999;51.332;9.458;2023-04-06T08:34:26;10.35;;;4.75;;
21675;SDS011;10999;51.332;9.458;2023-04-06T08:36:53;12.48;;;5.40;;
21675;SDS011;10999;51.332;9.458;2023-04-06T08:39:19;12.40;;;5.43;;
21675;SDS011;10999;51.332;9.458;2023-04-06T08:41:52;9.57;;;4.95;;
21675;SDS011;10999;51.332;9.458;2023-04-06T08:44:19;9.63;;;4.75;;
21675;SDS011;10999;51.332;9.458;2023-04-06T08:46:46;12.30;;;5.65;;
21675;SDS011;10999;51.332;9.458;2023-04-06T08:49:13;9.68;;;4.63;;
21675;SDS011;10999;51.332;9.458;2023-04-06T08:51:42;11.02;;;5.03;;
21675;SDS011;10999;51.332;9.458;2023-04-06T08:54:09;11.07;;;4.80;;
21675;SDS011;10999;51.332;9.458;2023-04-06T08:56:37;12.63;;;5.28;;
21675;SDS011;10999;51.332;9.458;2023-04-06T08:59:05;12.35;;;5.07;;
21675;SDS011;10999;51.332;9.458;2023-04-06T09:01:33;9.98;;;4.63;;
21675;SDS011;10999;51.332;9.458;2023-04-06T09:04:07;11.40;;;5.20;;
21675;SDS011;10999;51.332;9.458;2023-04-06T09:06:39;10.60;;;5.07;;
21675;SDS011;10999;51.332;9.458;2023-04-06T09:09:07;10.77;;;4.90;;
21675;SDS011;10999;51.332;9.458;2023-04-06T09:11:44;10.98;;;5.63;;
21675;SDS011;10999;51.332;9.458;2023-04-06T09:14:12;10.07;;;5.18;;
21675;SDS011;10999;51.332;9.458;2023-04-06T09:16:43;10.20;;;5.13;;
21675;SDS011;10999;51.332;9.458;2023-04-06T09:19:12;10.40;;;5.05;;
21675;SDS011;10999;51.332;9.458;2023-04-06T09:21:39;10.60;;;4.40;;
21675;SDS011;10999;51.332;9.458;2023-04-06T09:24:06;11.10;;;5.22;;
21675;SDS011;10999;51.332;9.458;2023-04-06T09:26:44;11.13;;;5.35;;
21675;SDS011;10999;51.332;9.458;2023-04-06T09:29:25;12.85;;;6.05;;
21675;SDS011;10999;51.332;9.458;2023-04-06T09:32:01;12.07;;;5.13;;
21675;SDS011;10999;51.332;9.458;2023-04-06T09:34:31;11.90;;;5.13;;
21675;SDS011;10999;51.332;9.458;2023-04-06T09:36:59;9.93;;;4.38;;
21675;SDS011;10999;51.332;9.458;2023-04-06T09:39:27;11.05;;;5.10;;
21675;SDS011;10999;51.332;9.458;2023-04-06T09:41:54;10.18;;;4.88;;
21675;SDS011;10999;51.332;9.458;2023-04-06T09:44:21;9.50;;;4.65;;
21675;SDS011;10999;51.332;9.458;2023-04-06T09:46:50;11.95;;;4.93;;
21675;SDS011;10999;51.332;9.458;2023-04-06T09:49:30;8.88;;;4.18;;
21675;SDS011;10999;51.332;9.458;2023-04-06T09:52:00;9.68;;;4.85;;
21675;SDS011;10999;51.332;9.458;2023-04-06T09:54:29;10.48;;;4.57;;
21675;SDS011;10999;51.332;9.458;2023-04-06T09:57:31;10.55;;;4.68;;
21675;SDS011;10999;51.332;9.458;2023-04-06T10:00:23;10.25;;;5.03;;
21675;SDS011;10999;51.332;9.458;2023-04-06T10:02:57;10.77;;;4.78;;
21675;SDS011;10999;51.332;9.458;2023-04-06T10:08:09;9.50;;;4.80;;
21675;SDS011;10999;51.332;9.458;2023-04-06T10:10:37;10.95;;;4.45;;
21675;SDS011;10999;51.332;9.458;2023-04-06T10:13:04;11.30;;;4.90;;
21675;SDS011;10999;51.332;9.458;2023-04-06T10:15:33;12.75;;;5.80;;
21675;SDS011;10999;51.332;9.458;2023-04-06T10:18:00;10.90;;;5.45;;
21675;SDS011;10999;51.332;9.458;2023-04-06T10:25:55;11.75;;;5.07;;
21675;SDS011;10999;51.332;9.458;2023-04-06T10:28:24;11.20;;;5.13;;
21675;SDS011;10999;51.332;9.458;2023-04-06T10:31:01;11.20;;;5.57;;
21675;SDS011;10999;51.332;9.458;2023-04-06T10:33:30;11.77;;;5.13;;
21675;SDS011;10999;51.332;9.458;2023-04-06T10:35:57;10.70;;;5.03;;
21675;SDS011;10999;51.332;9.458;2023-04-06T10:38:39;16.73;;;5.65;;
21675;SDS011;10999;51.332;9.458;2023-04-06T10:41:11;11.32;;;5.07;;
21675;SDS011;10999;51.332;9.458;2023-04-06T10:43:39;12.38;;;5.40;;
21675;SDS011;10999;51.332;9.458;2023-04-06T10:46:07;11.43;;;5.45;;
21675;SDS011;10999;51.332;9.458;2023-04-06T10:48:38;15.05;;;6.07;;
21675;SDS011;10999;51.332;9.458;2023-04-06T10:51:08;13.88;;;5.60;;
21675;SDS011;10999;51.332;9.458;2023-04-06T10:53:42;12.55;;;5.63;;
21675;SDS011;10999;51.332;9.458;2023-04-06T10:56:11;13.90;;;6.03;;
21675;SDS011;10999;51.332;9.458;2023-04-06T10:58:46;13.15;;;6.32;;
21675;SDS011;10999;51.332;9.458;2023-04-06T11:01:21;13.25;;;6.35;;
21675;SDS011;10999;51.332;9.458;2023-04-06T11:03:51;14.05;;;6.60;;
21675;SDS011;10999;51.332;9.458;2023-04-06T11:06:20;13.30;;;6.07;;
21675;SDS011;10999;51.332;9.458;2023-04-06T11:08:47;12.82;;;6.18;;
21675;SDS011;10999;51.332;9.458;2023-04-06T11:11:14;14.07;;;6.90;;
21675;SDS011;10999;51.332;9.458;2023-04-06T11:13:54;15.35;;;6.50;;
21675;SDS011;10999;51.332;9.458;2023-04-06T11:18:59;14.85;;;6.57;;
21675;SDS011;10999;51.332;9.458;2023-04-06T11:21:32;14.55;;;6.60;;
21675;SDS011;10999;51.332;9.458;2023-04-06T11:24:21;12.20;;;6.13;;
21675;SDS011;10999;51.332;9.458;2023-04-06T11:26:49;16.20;;;6.82;;
21675;SDS011;10999;51.332;9.458;2023-04-06T11:29:24;14.38;;;6.30;;
21675;SDS011;10999;51.332;9.458;2023-04-06T11:32:02;15.45;;;7.03;;
21675;SDS011;10999;51.332;9.458;2023-04-06T11:34:32;14.25;;;6.72;;
21675;SDS011;10999;51.332;9.458;2023-04-06T11:37:02;13.60;;;6.65;;
21675;SDS011;10999;51.332;9.458;2023-04-06T11:39:37;16.50;;;6.68;;
21675;SDS011;10999;51.332;9.458;2023-04-06T11:42:05;13.98;;;7.22;;
21675;SDS011;10999;51.332;9.458;2023-04-06T11:47:15;13.15;;;6.13;;
21675;SDS011;10999;51.332;9.458;2023-04-06T11:49:43;13.68;;;6.20;;
21675;SDS011;10999;51.332;9.458;2023-04-06T11:52:20;13.85;;;6.75;;
21675;SDS011;10999;51.332;9.458;2023-04-06T11:54:51;15.98;;;6.38;;
21675;SDS011;10999;51.332;9.458;2023-04-06T11:57:20;14.68;;;7.00;;
21675;SDS011;10999;51.332;9.458;2023-04-06T11:59:50;14.68;;;6.90;;
21675;SDS011;10999;51.332;9.458;2023-04-06T12:02:18;13.43;;;6.32;;
21675;SDS011;10999;51.332;9.458;2023-04-06T12:04:45;13.23;;;6.30;;
21675;SDS011;10999;51.332;9.458;2023-04-06T12:07:12;13.27;;;6.25;;
21675;SDS011;10999;51.332;9.458;2023-04-06T12:09:39;11.63;;;5.50;;
21675;SDS011;10999;51.332;9.458;2023-04-06T12:12:06;17.02;;;6.68;;
21675;SDS011;10999;51.332;9.458;2023-04-06T12:14:33;15.18;;;6.40;;
21675;SDS011;10999;51.332;9.458;2023-04-06T12:17:00;12.18;;;6.00;;
21675;SDS011;10999;51.332;9.458;2023-04-06T12:19:27;11.82;;;5.70;;
21675;SDS011;10999;51.332;9.458;2023-04-06T12:21:56;13.48;;;6.35;;
21675;SDS011;10999;51.332;9.458;2023-04-06T12:24:23;13.35;;;5.60;;
21675;SDS011;10999;51.332;9.458;2023-04-06T12:26:50;16.23;;;5.88;;
21675;SDS011;10999;51.332;9.458;2023-04-06T12:29:32;13.15;;;5.85;;
21675;SDS011;10999;51.332;9.458;2023-04-06T12:31:59;14.52;;;5.85;;
21675;SDS011;10999;51.332;9.458;2023-04-06T12:34:27;14.77;;;5.80;;
21675;SDS011;10999;51.332;9.458;2023-04-06T12:36:54;13.20;;;5.55;;
21675;SDS011;10999;51.332;9.458;2023-04-06T12:39:22;11.85;;;5.38;;
21675;SDS011;10999;51.332;9.458;2023-04-06T12:41:49;11.57;;;5.10;;
21675;SDS011;10999;51.332;9.458;2023-04-06T12:44:16;12.13;;;6.07;;
21675;SDS011;10999;51.332;9.458;2023-04-06T12:46:42;11.07;;;4.95;;
21675;SDS011;10999;51.332;9.458;2023-04-06T12:49:09;10.60;;;5.25;;
21675;SDS011;10999;51.332;9.458;2023-04-06T12:51:37;10.68;;;4.85;;
21675;SDS011;10999;51.332;9.458;2023-04-06T12:54:04;12.13;;;4.90;;
21675;SDS011;10999;51.332;9.458;2023-04-06T12:56:30;12.15;;;4.70;;
21675;SDS011;10999;51.332;9.458;2023-04-06T12:58:57;12.48;;;5.05;;
21675;SDS011;10999;51.332;9.458;2023-04-06T13:01:24;14.00;;;5.20;;
21675;SDS011;10999;51.332;9.458;2023-04-06T13:03:52;13.52;;;4.97;;
21675;SDS011;10999;51.332;9.458;2023-04-06T13:06:19;13.73;;;4.82;;
21675;SDS011;10999;51.332;9.458;2023-04-06T13:08:46;10.32;;;4.32;;
21675;SDS011;10999;51.332;9.458;2023-04-06T13:11:17;11.38;;;5.10;;
21675;SDS011;10999;51.332;9.458;2023-04-06T13:13:44;11.68;;;4.85;;
21675;SDS011;10999;51.332;9.458;2023-04-06T13:16:11;12.10;;;4.93;;
21675;SDS011;10999;51.332;9.458;2023-04-06T13:18:38;11.73;;;4.82;;
21675;SDS011;10999;51.332;9.458;2023-04-06T13:21:05;10.55;;;5.15;;
21675;SDS011;10999;51.332;9.458;2023-04-06T13:23:33;11.00;;;4.47;;
21675;SDS011;10999;51.332;9.458;2023-04-06T13:26:05;10.85;;;4.75;;
21675;SDS011;10999;51.332;9.458;2023-04-06T13:28:34;10.45;;;4.93;;
21675;SDS011;10999;51.332;9.458;2023-04-06T13:31:04;12.93;;;5.10;;
21675;SDS011;10999;51.332;9.458;2023-04-06T13:33:32;11.20;;;4.45;;
21675;SDS011;10999;51.332;9.458;2023-04-06T13:35:59;14.57;;;4.68;;
21675;SDS011;10999;51.332;9.458;2023-04-06T13:38:26;13.15;;;5.45;;
21675;SDS011;10999;51.332;9.458;2023-04-06T13:40:53;12.68;;;5.10;;
21675;SDS011;10999;51.332;9.458;2023-04-06T13:43:20;12.23;;;4.63;;
21675;SDS011;10999;51.332;9.458;2023-04-06T13:45:51;12.35;;;5.18;;
21675;SDS011;10999;51.332;9.458;2023-04-06T13:48:21;11.55;;;5.18;;
21675;SDS011;10999;51.332;9.458;2023-04-06T13:50:48;12.35;;;4.65;;
21675;SDS011;10999;51.332;9.458;2023-04-06T13:53:15;11.20;;;4.80;;
21675;SDS011;10999;51.332;9.458;2023-04-06T13:55:42;10.88;;;5.13;;
21675;SDS011;10999;51.332;9.458;2023-04-06T13:58:09;11.25;;;4.93;;
21675;SDS011;10999;51.332;9.458;2023-04-06T14:00:36;10.30;;;4.63;;
21675;SDS011;10999;51.332;9.458;2023-04-06T14:03:05;10.68;;;4.10;;
21675;SDS011;10999;51.332;9.458;2023-04-06T14:05:32;10.40;;;4.85;;
21675;SDS011;10999;51.332;9.458;2023-04-06T14:07:59;9.57;;;4.18;;
21675;SDS011;10999;51.332;9.458;2023-04-06T14:10:26;11.43;;;4.55;;
21675;SDS011;10999;51.332;9.458;2023-04-06T14:12:54;12.95;;;4.50;;
21675;SDS011;10999;51.332;9.458;2023-04-06T14:15:21;8.88;;;3.80;;
21675;SDS011;10999;51.332;9.458;2023-04-06T14:17:48;11.05;;;5.10;;
21675;SDS011;10999;51.332;9.458;2023-04-06T14:20:16;10.57;;;4.60;;
21675;SDS011;10999;51.332;9.458;2023-04-06T14:22:43;10.40;;;4.63;;
21675;SDS011;10999;51.332;9.458;2023-04-06T14:25:10;11.18;;;5.00;;
21675;SDS011;10999;51.332;9.458;2023-04-06T14:27:39;9.57;;;4.25;;
21675;SDS011;10999;51.332;9.458;2023-04-06T14:30:06;8.80;;;3.85;;
21675;SDS011;10999;51.332;9.458;2023-04-06T14:32:34;9.93;;;4.85;;
21675;SDS011;10999;51.332;9.458;2023-04-06T14:35:03;12.15;;;5.55;;
21675;SDS011;10999;51.332;9.458;2023-04-06T14:37:33;11.55;;;4.88;;
21675;SDS011;10999;51.332;9.458;2023-04-06T14:40:01;9.00;;;4.38;;
21675;SDS011;10999;51.332;9.458;2023-04-06T14:42:28;10.88;;;4.20;;
21675;SDS011;10999;51.332;9.458;2023-04-06T14:44:55;9.38;;;4.13;;
21675;SDS011;10999;51.332;9.458;2023-04-06T14:47:22;10.13;;;4.72;;
21675;SDS011;10999;51.332;9.458;2023-04-06T14:49:50;9.13;;;4.35;;
21675;SDS011;10999;51.332;9.458;2023-04-06T14:52:18;9.63;;;4.30;;
21675;SDS011;10999;51.332;9.458;2023-04-06T14:54:45;11.30;;;5.00;;
21675;SDS011;10999;51.332;9.458;2023-04-06T14:57:12;10.55;;;4.78;;
21675;SDS011;10999;51.332;9.458;2023-04-06T14:59:39;11.20;;;4.72;;
21675;SDS011;10999;51.332;9.458;2023-04-06T15:02:06;10.93;;;4.70;;
21675;SDS011;10999;51.332;9.458;2023-04-06T15:04:36;11.25;;;5.07;;
21675;SDS011;10999;51.332;9.458;2023-04-06T15:07:04;10.20;;;4.63;;
21675;SDS011;10999;51.332;9.458;2023-04-06T15:09:31;9.07;;;4.70;;
21675;SDS011;10999;51.332;9.458;2023-04-06T15:11:58;9.77;;;4.85;;
21675;SDS011;10999;51.332;9.458;2023-04-06T15:14:24;10.25;;;4.72;;